Terminal Aerodrome Forecast
Issued by NWS Kansas City/Pleasant Hill, MO

Home | Current Version | Previous Version | Text Only | Print | Product List | Glossary On
Versions: 1 2 3 4 5 6 7 8 9 10 11 12 13 14 15 16 17 18
000
FTUS43 KEAX 221100
TAFMCI
TAF
KMCI 221134Z 2212/2312 15012KT 4SM -RADZ BR OVC008
      TEMPO 2212/2215 2SM -RA BR
     FM221500 17014KT 3SM -RA BR SCT004 OVC006
     FM222300 26012KT 6SM -RA BR SCT004 OVC006
     FM230300 24011KT 6SM BR SCT015 OVC020=

USA.gov is the U.S. government's official web portal to all federal, state and local government web resources and services.